Time;durP1;ratioP1;P1;durP2;ratioP2;P2;SDS_P1;SDS_P2;PMS_P1;PMS_P2;Temp;Humidity;BMP_temperature;BMP_pressure;BME280_temperature;BME280_humidity;BME280_pressure;Samples;Min_cycle;Max_cycle;Signal;HPM_P1;HPM_P2
2022/02/14 00:00:37;;;;;;;2.77;2.57;;;9.90;93.00;;;;;;4914241;29;20794;-86
2022/02/14 00:07:27;;;;;;;4.23;3.10;;;9.80;93.00;;;;;;4894922;29;20471;-88
2022/02/14 00:10:23;;;;;;;8.73;3.30;;;9.90;93.00;;;;;;4902021;29;20487;-86
2022/02/14 00:13:30;;;;;;;5.10;3.43;;;9.70;93.60;;;;;;4890400;29;20487;-88
2022/02/14 00:16:46;;;;;;;5.77;3.57;;;9.70;93.30;;;;;;4887959;29;20467;-88
2022/02/14 00:19:53;;;;;;;6.47;2.97;;;9.70;93.40;;;;;;4898710;29;20463;-87
2022/02/14 00:26:04;;;;;;;5.23;3.33;;;9.60;93.90;;;;;;4887628;29;20986;-88
2022/02/14 00:29:09;;;;;;;;;;;;;;;;;;;;;
2022/02/14 00:32:48;;;;;;;;;;;;;;;;;;;;;
2022/02/14 00:35:55;;;;;;;3.30;3.00;;;9.50;94.10;;;;;;4885861;29;20953;-89
2022/02/14 00:38:59;;;;;;;;;;;;;;;;;;;;;
2022/02/14 00:42:26;;;;;;;3.00;2.40;;;9.60;94.00;;;;;;4905069;29;20465;-89
2022/02/14 00:45:21;;;;;;;2.53;2.33;;;9.50;94.40;;;;;;4903906;29;20511;-88
2022/02/14 00:48:44;;;;;;;6.70;3.23;;;9.50;94.70;;;;;;4886892;29;20506;-87
2022/02/14 00:51:37;;;;;;;3.80;3.07;;;9.60;94.50;;;;;;4885273;29;21045;-86
2022/02/14 00:59:08;;;;;;;3.40;2.57;;;9.60;94.90;;;;;;4896797;29;20460;-87
2022/02/14 01:02:37;;;;;;;5.53;3.40;;;9.60;95.20;;;;;;4883479;29;20452;-86
2022/02/14 01:06:03;;;;;;;5.57;3.00;;;9.60;95.30;;;;;;4885786;29;20508;-88
2022/02/14 01:12:50;;;;;;;2.73;2.50;;;9.50;95.30;;;;;;4842632;29;20974;-89
2022/02/14 01:15:54;;;;;;;7.07;3.07;;;9.70;94.90;;;;;;4890151;29;20510;-86
2022/02/14 01:18:25;;;;;;;4.17;2.90;;;9.80;94.80;;;;;;4888585;29;20460;-89
2022/02/14 01:20:54;;;;;;;3.97;2.80;;;9.80;94.80;;;;;;4885000;29;20473;-88
2022/02/14 01:23:21;;;;;;;3.50;2.30;;;9.80;94.80;;;;;;4885233;29;20518;-88
2022/02/14 01:26:10;;;;;;;2.47;2.00;;;9.70;95.00;;;;;;4898375;29;20474;-90
2022/02/14 01:29:26;;;;;;;2.43;2.23;;;9.80;95.00;;;;;;4885190;29;20488;-87
2022/02/14 01:32:02;;;;;;;3.87;1.93;;;9.80;95.00;;;;;;4867524;29;20483;-85
2022/02/14 01:34:47;;;;;;;3.70;2.60;;;9.80;95.00;;;;;;4867179;29;20575;-88
2022/02/14 01:37:17;;;;;;;4.03;2.57;;;9.90;95.00;;;;;;4874473;29;20520;-88
2022/02/14 01:39:51;;;;;;;3.70;2.73;;;10.00;94.30;;;;;;4899257;29;20472;-87
2022/02/14 01:42:23;;;;;;;4.83;2.30;;;10.00;94.20;;;;;;4900245;29;20497;-88
2022/02/14 01:45:05;;;;;;;5.13;2.70;;;10.00;94.40;;;;;;4886465;29;20482;-87
2022/02/14 01:47:53;;;;;;;5.40;2.53;;;10.00;94.40;;;;;;4873606;29;20515;-88
2022/02/14 01:50:44;;;;;;;4.67;2.77;;;10.00;94.50;;;;;;4908544;29;20488;-90
2022/02/14 01:53:41;;;;;;;5.40;2.57;;;10.00;94.40;;;;;;4918319;29;20490;-90
2022/02/14 01:56:59;;;;;;;2.80;2.57;;;10.00;94.40;;;;;;4848013;29;20554;-87
2022/02/14 01:59:38;;;;;;;4.07;2.77;;;10.10;94.10;;;;;;4840282;29;20470;-89
2022/02/14 02:02:46;;;;;;;2.07;1.83;;;10.00;94.10;;;;;;4817618;29;20465;-88
2022/02/14 02:05:25;;;;;;;5.57;3.03;;;10.00;94.20;;;;;;4848830;29;20852;-89
2022/02/14 02:08:18;;;;;;;;;;;;;;;;;;;;;
2022/02/14 02:10:47;;;;;;;10.13;3.10;;;9.80;95.20;;;;;;4838109;29;20806;-89
2022/02/14 02:13:22;;;;;;;2.70;2.40;;;9.80;95.10;;;;;;4845169;29;20541;-88
2022/02/14 02:15:53;;;;;;;6.13;2.77;;;9.80;95.10;;;;;;4841250;29;20492;-88
2022/02/14 02:18:34;;;;;;;4.60;2.97;;;9.70;95.60;;;;;;4843361;29;20477;-86
2022/02/14 02:21:10;;;;;;;4.97;2.33;;;9.70;95.50;;;;;;4845991;29;20454;-88
2022/02/14 02:23:56;;;;;;;6.53;2.47;;;9.60;95.90;;;;;;4844415;29;20576;-87
2022/02/14 02:26:57;;;;;;;4.97;3.00;;;9.60;95.90;;;;;;4833055;29;20506;-87
2022/02/14 02:29:38;;;;;;;5.30;2.00;;;9.70;95.90;;;;;;4843289;29;20637;-89
2022/02/14 02:32:07;;;;;;;3.87;2.50;;;9.70;95.80;;;;;;4846905;29;20520;-87
2022/02/14 02:34:49;;;;;;;3.03;2.00;;;9.70;95.70;;;;;;4886531;29;20463;-89
2022/02/14 02:37:48;;;;;;;4.47;2.10;;;9.90;95.70;;;;;;4881902;29;20468;-89
2022/02/14 02:40:40;;;;;;;2.77;2.20;;;9.80;95.80;;;;;;4883711;29;20464;-88
2022/02/14 02:43:23;;;;;;;4.23;2.80;;;9.80;95.90;;;;;;4883351;29;20499;-88
2022/02/14 02:49:27;;;;;;;3.77;2.57;;;9.90;95.20;;;;;;4883478;29;20498;-90
2022/02/14 02:52:28;;;;;;;3.20;2.30;;;9.90;95.10;;;;;;4890188;29;20488;-89
2022/02/14 02:55:07;;;;;;;2.83;2.20;;;9.90;95.00;;;;;;4888888;29;20449;-87
2022/02/14 02:57:42;;;;;;;3.73;3.30;;;10.00;94.30;;;;;;4899778;29;20472;-90
2022/02/14 03:00:33;;;;;;;6.93;2.30;;;10.00;94.20;;;;;;4881744;29;20475;-87
2022/02/14 03:03:11;;;;;;;7.77;2.53;;;9.90;95.00;;;;;;4881683;29;20550;-90
2022/02/14 03:06:02;;;;;;;2.90;2.40;;;9.90;94.90;;;;;;4884719;29;20467;-87
2022/02/14 03:08:41;;;;;;;2.77;1.90;;;9.90;95.00;;;;;;4896286;29;20455;-88
2022/02/14 03:11:21;;;;;;;2.77;2.57;;;10.00;94.50;;;;;;4885936;29;20492;-87
2022/02/14 03:14:06;;;;;;;3.33;2.33;;;10.10;94.40;;;;;;4898598;29;20492;-87
2022/02/14 03:17:05;;;;;;;4.73;2.60;;;10.10;94.30;;;;;;4882882;29;20582;-87
2022/02/14 03:20:06;;;;;;;2.80;2.10;;;9.90;95.10;;;;;;4898589;29;20922;-89
2022/02/14 03:22:53;;;;;;;5.23;2.33;;;10.00;94.60;;;;;;4884734;29;20864;-86
2022/02/14 03:25:28;;;;;;;2.40;1.87;;;10.10;94.30;;;;;;4886605;29;20475;-87
2022/02/14 03:28:14;;;;;;;2.97;2.10;;;10.10;94.30;;;;;;4886255;29;20467;-88
2022/02/14 03:30:51;;;;;;;6.00;2.20;;;10.00;94.30;;;;;;4898998;29;20698;-89
2022/02/14 03:33:53;;;;;;;3.47;2.17;;;10.10;94.30;;;;;;4888772;29;20482;-88
2022/02/14 03:36:48;;;;;;;4.13;2.10;;;10.10;94.40;;;;;;4884034;29;20459;-88
2022/02/14 03:39:26;;;;;;;2.20;1.80;;;10.20;94.20;;;;;;4885433;29;20462;-89
2022/02/14 03:42:17;;;;;;;;;;;;;;;;;;;;;
2022/02/14 03:45:09;;;;;;;2.27;1.80;;;10.30;94.00;;;;;;4951507;28;20515;-88
2022/02/14 03:47:41;;;;;;;2.20;2.00;;;10.10;94.10;;;;;;4954054;28;20483;-89
2022/02/14 03:50:16;;;;;;;4.07;2.27;;;10.30;94.10;;;;;;4977154;28;20481;-88
2022/02/14 03:52:58;;;;;;;3.17;2.40;;;10.30;94.00;;;;;;4973673;28;20636;-90
2022/02/14 03:55:36;;;;;;;2.60;1.90;;;10.20;94.20;;;;;;4957083;28;20468;-88
2022/02/14 03:58:36;;;;;;;3.80;1.67;;;10.10;94.30;;;;;;4943419;29;20459;-89
2022/02/14 04:01:06;;;;;;;2.47;2.27;;;10.30;94.00;;;;;;4950593;28;20462;-87
2022/02/14 04:04:18;;;;;;;2.00;1.80;;;10.40;93.90;;;;;;4944380;29;20486;-87
2022/02/14 04:06:53;;;;;;;2.43;2.23;;;10.20;94.20;;;;;;4950129;28;20954;-87
2022/02/14 04:09:19;;;;;;;3.57;2.00;;;10.20;94.40;;;;;;4951530;28;20454;-87
2022/02/14 04:11:59;;;;;;;3.13;2.00;;;10.20;94.30;;;;;;4941284;29;20596;-89
2022/02/14 04:14:42;;;;;;;3.20;2.03;;;10.30;94.30;;;;;;4946041;29;20491;-88
2022/02/14 04:17:28;;;;;;;3.80;2.17;;;10.50;93.90;;;;;;4952290;29;20509;-88
2022/02/14 04:20:13;;;;;;;3.47;2.00;;;10.30;93.90;;;;;;4975530;29;20458;-90
2022/02/14 04:23:11;;;;;;;2.70;2.50;;;10.30;94.20;;;;;;4950985;29;20497;-87
2022/02/14 04:25:59;;;;;;;5.47;1.87;;;10.40;93.80;;;;;;4977475;28;20460;-86
2022/02/14 04:28:40;;;;;;;4.50;2.00;;;10.40;93.90;;;;;;4950934;29;20465;-86
2022/02/14 04:31:24;;;;;;;2.40;1.67;;;10.30;94.00;;;;;;4958190;28;20486;-87
2022/02/14 04:34:19;;;;;;;4.33;1.60;;;10.40;94.20;;;;;;4945260;29;20478;-86
2022/02/14 04:37:22;;;;;;;3.40;2.20;;;10.40;94.10;;;;;;4941375;29;20478;-86
2022/02/14 04:42:50;;;;;;;2.47;1.50;;;10.20;94.40;;;;;;4966930;28;20473;-91
2022/02/14 04:48:55;;;;;;;3.80;1.77;;;10.40;94.30;;;;;;4955867;29;20467;-90
2022/02/14 04:51:27;;;;;;;2.10;1.83;;;10.40;94.40;;;;;;4961088;29;20489;-88
2022/02/14 04:56:49;;;;;;;1.80;1.47;;;10.40;94.20;;;;;;1017532;26;20769;-81
2022/02/14 05:00:24;;;;;;;3.20;2.07;;;10.40;94.40;;;;;;4954655;29;20521;-82
2022/02/14 05:03:27;;;;;;;4.27;2.10;;;10.40;94.70;;;;;;4914257;29;20463;-83
2022/02/14 05:07:07;;;;;;;;;;;;;;;;;;;;;
2022/02/14 05:10:35;;;;;;;2.83;1.90;;;10.40;94.60;;;;;;4813670;29;20558;-84
2022/02/14 05:14:04;;;;;;;2.13;1.70;;;10.50;94.90;;;;;;4900533;23;20514;-84
2022/02/14 05:16:45;;;;;;;1.70;1.60;;;10.50;94.90;;;;;;4877136;29;20472;-83
2022/02/14 05:19:25;;;;;;;4.53;1.63;;;10.40;95.20;;;;;;4958772;28;20465;-84
2022/02/14 05:25:08;;;;;;;2.57;2.10;;;10.60;94.90;;;;;;4946901;28;20846;-84
2022/02/14 05:28:05;;;;;;;2.70;1.80;;;10.60;94.90;;;;;;4960903;28;20460;-85
2022/02/14 05:30:54;;;;;;;5.10;2.10;;;10.60;95.20;;;;;;4950389;29;21020;-84
2022/02/14 05:33:56;;;;;;;1.83;1.57;;;10.70;95.10;;;;;;4904245;29;20529;-82
2022/02/14 05:36:50;;;;;;;2.50;1.33;;;10.70;95.10;;;;;;4906517;29;20439;-83
2022/02/14 05:39:25;;;;;;;4.23;2.17;;;10.50;95.60;;;;;;4902773;29;20650;-83
2022/02/14 05:42:29;;;;;;;1.63;1.50;;;10.50;95.70;;;;;;4885039;29;21312;-83
2022/02/14 05:45:08;;;;;;;2.00;1.90;;;10.50;95.90;;;;;;4918881;29;20487;-85
2022/02/14 05:47:58;;;;;;;1.63;1.53;;;10.60;95.90;;;;;;4905951;29;20606;-84
2022/02/14 05:50:31;;;;;;;3.50;2.20;;;10.70;95.90;;;;;;4916620;29;20497;-84
2022/02/14 05:53:22;;;;;;;1.73;1.40;;;10.60;95.80;;;;;;4921271;29;20475;-84
2022/02/14 05:55:59;;;;;;;2.83;2.20;;;10.50;96.10;;;;;;4903906;29;20492;-84
2022/02/14 05:58:47;;;;;;;3.60;1.53;;;10.50;96.30;;;;;;4883845;29;20447;-85
2022/02/14 06:01:31;;;;;;;3.53;2.20;;;10.60;96.40;;;;;;4906138;29;20570;-83
2022/02/14 06:07:19;;;;;;;2.43;2.10;;;10.50;96.50;;;;;;4973858;28;20465;-84
2022/02/14 06:10:24;;;;;;;1.67;1.57;;;10.40;96.80;;;;;;4980483;28;20516;-81
2022/02/14 06:13:06;;;;;;;2.50;1.50;;;10.40;97.00;;;;;;4952165;29;20515;-84
2022/02/14 06:15:38;;;;;;;1.80;1.70;;;10.40;97.00;;;;;;4957172;29;20480;-84
2022/02/14 06:18:31;;;;;;;1.97;1.37;;;10.40;97.20;;;;;;4958963;29;20485;-84
2022/02/14 06:21:07;;;;;;;3.43;2.10;;;10.50;97.10;;;;;;4951596;29;20461;-85
2022/02/14 06:23:52;;;;;;;2.80;2.07;;;10.60;97.00;;;;;;4966068;28;20472;-83
2022/02/14 06:26:47;;;;;;;3.00;1.90;;;10.60;97.00;;;;;;4946330;29;20457;-84
2022/02/14 06:29:36;;;;;;;3.10;2.07;;;10.60;97.20;;;;;;4962087;28;20521;-85
2022/02/14 06:32:16;;;;;;;6.20;1.77;;;10.60;97.40;;;;;;4975211;28;20445;-85
2022/02/14 06:35:06;;;;;;;4.57;2.60;;;10.70;97.40;;;;;;4981751;28;20463;-85
2022/02/14 06:37:42;;;;;;;4.83;2.13;;;10.70;97.30;;;;;;4975383;28;20491;-86
2022/02/14 06:40:24;;;;;;;3.07;1.53;;;10.70;97.40;;;;;;4972585;28;20475;-86
2022/02/14 06:43:08;;;;;;;2.50;2.07;;;10.70;97.70;;;;;;4986314;28;20457;-84
2022/02/14 06:46:03;;;;;;;1.57;1.40;;;10.80;97.90;;;;;;4954367;29;20488;-83
2022/02/14 06:49:15;;;;;;;1.67;1.57;;;10.80;98.00;;;;;;4955672;28;20511;-83
2022/02/14 06:55:09;;;;;;;2.07;1.77;;;10.90;98.60;;;;;;4949193;29;20498;-83
2022/02/14 07:01:44;;;;;;;2.40;1.63;;;11.00;98.70;;;;;;4949861;29;20617;-84
2022/02/14 07:05:11;;;;;;;2.43;1.53;;;11.10;98.70;;;;;;4863450;29;20958;-85
2022/02/14 07:08:12;;;;;;;3.93;1.90;;;11.10;98.70;;;;;;4875892;29;20487;-84
2022/02/14 07:10:49;;;;;;;3.43;1.60;;;11.10;99.00;;;;;;4878906;29;21160;-85
2022/02/14 07:13:46;;;;;;;1.90;1.70;;;11.10;99.30;;;;;;4886535;29;20488;-86
2022/02/14 07:16:22;;;;;;;3.77;2.30;;;11.30;99.00;;;;;;4878709;29;20533;-85
2022/02/14 07:19:28;;;;;;;2.13;1.90;;;11.30;98.80;;;;;;4879164;29;20474;-83
2022/02/14 07:22:38;;;;;;;2.23;1.90;;;11.40;98.80;;;;;;4876210;29;20493;-84
2022/02/14 07:25:52;;;;;;;3.23;1.50;;;11.60;99.00;;;;;;4880580;29;21182;-84
2022/02/14 07:28:40;;;;;;;3.60;1.97;;;12.10;97.40;;;;;;4931017;29;20519;-84
2022/02/14 07:31:52;;;;;;;2.60;1.70;;;11.90;97.40;;;;;;4966877;28;20492;-85
2022/02/14 07:35:02;;;;;;;1.77;1.67;;;11.50;98.20;;;;;;4953482;28;20495;-84
2022/02/14 07:37:44;;;;;;;2.00;1.80;;;11.60;98.50;;;;;;4953237;29;20465;-83
2022/02/14 07:40:18;;;;;;;2.67;1.90;;;11.80;98.30;;;;;;4960646;28;20491;-87
2022/02/14 07:43:32;;;;;;;2.03;1.77;;;11.80;98.20;;;;;;4973828;28;20520;-86
2022/02/14 07:46:44;;;;;;;2.93;1.80;;;11.70;98.20;;;;;;4950485;29;20527;-84
2022/02/14 07:53:18;;;;;;;1.97;1.87;;;11.90;98.00;;;;;;4971152;28;20449;-90
2022/02/14 07:59:08;;;;;;;2.80;1.60;;;12.00;98.00;;;;;;4971537;29;20459;-88
2022/02/14 08:02:38;;;;;;;3.23;1.50;;;12.00;97.70;;;;;;4959423;29;20472;-88
2022/02/14 08:05:58;;;;;;;;;;;;;;;;;;;;;
2022/02/14 08:09:07;;;;;;;2.10;1.93;;;12.00;98.10;;;;;;4993965;28;20468;-87
2022/02/14 08:16:12;;;;;;;1.87;1.43;;;12.20;97.90;;;;;;4957484;28;20519;-86
2022/02/14 08:22:41;;;;;;;1.40;1.30;;;12.10;98.20;;;;;;4968111;28;20480;-87
2022/02/14 08:25:56;;;;;;;2.47;1.60;;;12.20;98.10;;;;;;4971103;28;20552;-86
2022/02/14 08:28:52;;;;;;;;;;;;;;;;;;;;;
2022/02/14 08:32:14;;;;;;;;;;;;;;;;;;;;;
2022/02/14 08:35:06;;;;;;;2.00;1.70;;;12.60;97.20;;;;;;4940770;29;20478;-84
2022/02/14 08:38:24;;;;;;;;;;;;;;;;;;;;;
2022/02/14 08:41:12;;;;;;;2.20;1.63;;;12.70;97.10;;;;;;4941974;29;20461;-87
2022/02/14 08:44:12;;;;;;;5.80;2.93;;;12.50;97.20;;;;;;4937912;29;20832;-85
2022/02/14 08:47:08;;;;;;;2.80;1.80;;;12.80;97.30;;;;;;4945726;29;20454;-87
2022/02/14 08:50:32;;;;;;;2.00;1.70;;;13.00;96.60;;;;;;4933940;29;20462;-85
2022/02/14 08:53:54;;;;;;;4.17;1.80;;;13.10;96.50;;;;;;4952672;29;20506;-89
2022/02/14 09:00:10;;;;;;;2.03;1.50;;;13.30;96.10;;;;;;4956273;28;20442;-89
2022/02/14 09:03:51;;;;;;;4.17;1.70;;;13.30;96.00;;;;;;4978178;28;20441;-87
2022/02/14 09:06:44;;;;;;;1.80;1.40;;;13.30;96.00;;;;;;4980455;28;20506;-91
2022/02/14 09:09:57;;;;;;;4.33;1.77;;;13.40;96.00;;;;;;4984799;28;20499;-89
2022/02/14 09:13:24;;;;;;;4.40;1.83;;;13.40;95.80;;;;;;4974049;28;20429;-90
2022/02/14 09:20:22;;;;;;;3.53;1.63;;;13.30;95.80;;;;;;4980680;28;20418;-89
2022/02/14 09:26:18;;;;;;;2.67;1.80;;;13.70;95.40;;;;;;5002640;23;20489;-90
2022/02/14 09:29:17;;;;;;;1.50;1.40;;;13.70;95.20;;;;;;4973173;28;20451;-91
2022/02/14 09:32:16;;;;;;;1.50;1.33;;;13.70;95.40;;;;;;4958600;29;20566;-91
2022/02/14 09:35:26;;;;;;;1.70;1.60;;;13.60;95.90;;;;;;4955062;29;20587;-91
2022/02/14 09:38:27;;;;;;;1.80;1.53;;;13.80;95.30;;;;;;4971601;28;20462;-90
2022/02/14 09:48:04;;;;;;;1.93;1.13;;;13.80;95.20;;;;;;4975780;23;20537;-86
2022/02/14 10:06:45;;;;;;;1.83;0.80;;;13.90;95.10;;;;;;4997588;28;20497;-88
2022/02/14 10:10:06;;;;;;;1.30;1.20;;;13.70;95.50;;;;;;5000782;28;20437;-91
2022/02/14 10:12:47;;;;;;;1.13;0.73;;;13.70;95.50;;;;;;4984159;28;20483;-89
2022/02/14 10:15:19;;;;;;;0.80;0.80;;;13.70;95.70;;;;;;4961085;29;20477;-89
2022/02/14 10:18:00;;;;;;;1.83;0.97;;;13.70;95.80;;;;;;4958525;29;20453;-88
2022/02/14 10:20:43;;;;;;;3.93;1.20;;;14.20;95.70;;;;;;4956427;29;20462;-88
2022/02/14 10:23:27;;;;;;;0.67;0.67;;;14.40;94.80;;;;;;4955049;28;20549;-89
2022/02/14 10:26:07;;;;;;;1.17;0.90;;;14.30;94.80;;;;;;4958120;29;20454;-90
2022/02/14 10:28:38;;;;;;;1.00;0.80;;;13.80;95.90;;;;;;4973379;28;20457;-88
2022/02/14 10:31:18;;;;;;;0.80;0.80;;;13.80;96.10;;;;;;4950602;29;20508;-86
2022/02/14 10:34:00;;;;;;;1.00;0.80;;;13.80;96.30;;;;;;4945434;29;20478;-86
2022/02/14 10:36:44;;;;;;;2.00;0.80;;;13.40;97.20;;;;;;4962229;28;20457;-87
2022/02/14 10:39:48;;;;;;;1.00;1.00;;;13.40;97.40;;;;;;4946641;29;20458;-84
2022/02/14 10:42:36;;;;;;;3.80;0.80;;;13.20;98.20;;;;;;4957041;28;20468;-85
2022/02/14 10:46:26;;;;;;;;;;;;;;;;;;;;;
2022/02/14 10:49:54;;;;;;;2.73;0.50;;;12.70;99.20;;;;;;4886651;29;20469;-87
2022/02/14 11:09:28;;;;;;;1.13;0.70;;;12.80;95.30;;;;;;4924428;29;20511;-89
2022/02/14 11:15:40;;;;;;;1.57;1.47;;;12.70;95.20;;;;;;4920804;29;20475;-85
2022/02/14 11:19:09;;;;;;;3.00;0.83;;;12.70;95.70;;;;;;4926228;29;21310;-85
2022/02/14 11:22:21;;;;;;;0.70;0.70;;;12.50;96.00;;;;;;4863978;29;20468;-85
2022/02/14 11:25:52;;;;;;;1.43;0.50;;;12.50;95.70;;;;;;4875879;29;20565;-85
2022/02/14 11:28:51;;;;;;;0.80;0.60;;;12.60;95.50;;;;;;4857747;29;21032;-85
2022/02/14 11:35:22;;;;;;;0.60;0.60;;;12.50;95.20;;;;;;4978129;23;20503;-86
2022/02/14 11:38:46;;;;;;;1.20;0.70;;;12.50;95.50;;;;;;4988904;28;20526;-85
2022/02/14 11:42:33;;;;;;;;;;;;;;;;;;;;;
2022/02/14 11:45:33;;;;;;;2.03;0.60;;;12.40;95.80;;;;;;4956672;28;20484;-88
2022/02/14 11:48:55;;;;;;;1.67;0.47;;;12.50;95.80;;;;;;4948566;28;20515;-87
2022/02/14 11:52:58;;;;;;;3.70;0.70;;;13.00;94.70;;;;;;4956785;28;20476;-85
2022/02/14 11:56:31;;;;;;;1.40;0.70;;;13.20;94.50;;;;;;4950515;28;20469;-89
2022/02/14 12:00:08;;;;;;;2.20;0.90;;;13.30;93.90;;;;;;4950020;28;20473;-85
2022/02/14 12:04:02;;;;;;;0.83;0.80;;;13.50;93.10;;;;;;4973041;28;20469;-91
2022/02/14 12:11:27;;;;;;;0.80;0.70;;;13.20;92.60;;;;;;4849798;29;20505;-86
2022/02/14 12:14:37;;;;;;;0.80;0.63;;;12.90;92.90;;;;;;4841536;29;20488;-87
2022/02/14 12:24:22;;;;;;;;;;;;;;;;;;;;;
2022/02/14 12:31:39;;;;;;;1.80;1.13;;;13.00;92.70;;;;;;4886242;29;20570;-88
2022/02/14 12:38:05;;;;;;;1.53;0.90;;;12.90;92.50;;;;;;4817148;29;20532;-88
2022/02/14 12:41:10;;;;;;;1.97;0.80;;;13.10;92.50;;;;;;4759213;30;20454;-88
2022/02/14 12:47:47;;;;;;;1.40;0.60;;;13.20;91.80;;;;;;4797274;29;20494;-87
2022/02/14 12:51:15;;;;;;;1.50;0.60;;;13.20;91.00;;;;;;4799903;29;20444;-85
2022/02/14 12:54:13;;;;;;;2.90;0.70;;;13.50;90.10;;;;;;4795393;29;20497;-88
2022/02/14 12:57:39;;;;;;;1.13;0.70;;;13.40;90.30;;;;;;4797163;29;20473;-86
2022/02/14 13:01:07;;;;;;;3.13;0.80;;;13.20;90.60;;;;;;4798982;29;20470;-89
2022/02/14 13:06:51;;;;;;;1.80;0.77;;;13.60;90.50;;;;;;4927581;29;20487;-88
2022/02/14 13:10:18;;;;;;;1.63;1.10;;;13.70;90.10;;;;;;4941638;28;20462;-86
2022/02/14 13:13:44;;;;;;;;;;;;;;;;;;;;;
2022/02/14 13:20:29;;;;;;;0.73;0.73;;;13.70;88.00;;;;;;4936082;28;20431;-89
2022/02/14 13:23:52;;;;;;;3.27;0.70;;;14.00;87.20;;;;;;4904691;29;20511;-85
2022/02/14 13:30:28;;;;;;;1.07;0.97;;;14.10;84.80;;;;;;4901839;29;20454;-86
2022/02/14 13:33:25;;;;;;;2.27;0.70;;;13.80;85.30;;;;;;5242494;23;20457;-89
2022/02/14 13:36:00;;;;;;;1.80;1.10;;;13.80;85.40;;;;;;4941994;28;21157;-88
2022/02/14 13:38:42;;;;;;;1.13;0.87;;;13.60;85.40;;;;;;4945518;28;20458;-86
2022/02/14 13:41:56;;;;;;;1.57;0.70;;;13.40;84.60;;;;;;4958217;28;20509;-85
2022/02/14 13:45:05;;;;;;;1.83;0.67;;;13.20;85.50;;;;;;4962783;28;20517;-86
2022/02/14 13:48:12;;;;;;;1.27;0.80;;;13.00;86.40;;;;;;4949026;28;20720;-89
2022/02/14 13:51:20;;;;;;;1.47;0.80;;;13.00;87.20;;;;;;4945257;28;21205;-85
2022/02/14 13:54:22;;;;;;;1.20;0.70;;;13.10;86.60;;;;;;4959825;28;20989;-87
2022/02/14 13:57:40;;;;;;;2.83;0.90;;;13.00;87.40;;;;;;4945187;28;20998;-87
2022/02/14 14:04:36;;;;;;;1.20;1.03;;;12.90;88.80;;;;;;4886990;29;20567;-86
2022/02/14 14:07:42;;;;;;;1.20;1.10;;;13.00;88.70;;;;;;4909813;29;20467;-87
2022/02/14 14:10:25;;;;;;;3.10;1.10;;;13.00;89.30;;;;;;4955294;28;20465;-87
2022/02/14 14:13:36;;;;;;;2.43;0.87;;;13.10;89.30;;;;;;4943975;28;20481;-88
2022/02/14 14:16:15;;;;;;;2.17;1.20;;;13.10;89.40;;;;;;4957990;28;20472;-86
2022/02/14 14:18:57;;;;;;;1.57;0.77;;;13.80;86.70;;;;;;4959528;28;20461;-88
2022/02/14 14:21:31;;;;;;;4.33;1.07;;;13.40;86.40;;;;;;4960361;28;20932;-86
2022/02/14 14:24:40;;;;;;;1.77;1.00;;;13.40;87.10;;;;;;4962069;28;20485;-85
2022/02/14 14:27:14;;;;;;;1.93;0.93;;;13.20;87.30;;;;;;4954192;28;20450;-88
2022/02/14 14:30:05;;;;;;;2.50;1.00;;;13.00;88.10;;;;;;4957016;28;20823;-86
2022/02/14 14:32:58;;;;;;;2.03;0.73;;;13.00;88.00;;;;;;4938509;28;20564;-87
2022/02/14 14:35:34;;;;;;;1.50;1.20;;;13.00;88.70;;;;;;4957660;28;20456;-88
2022/02/14 14:38:04;;;;;;;1.90;0.83;;;13.50;87.30;;;;;;4947666;28;20467;-85
2022/02/14 14:40:57;;;;;;;1.57;0.67;;;13.20;87.30;;;;;;4953827;28;20881;-85
2022/02/14 14:43:38;;;;;;;2.30;0.97;;;13.60;85.10;;;;;;4945052;28;21033;-86
2022/02/14 14:46:34;;;;;;;1.43;0.60;;;13.70;84.10;;;;;;4932284;28;20469;-88
2022/02/14 14:49:39;;;;;;;6.27;1.23;;;13.40;84.00;;;;;;4966752;28;20583;-89
2022/02/14 14:52:44;;;;;;;2.67;0.90;;;13.20;84.60;;;;;;4954530;28;20513;-88
2022/02/14 14:55:31;;;;;;;2.97;0.93;;;13.10;85.00;;;;;;4962650;28;20479;-88
2022/02/14 14:58:14;;;;;;;2.20;1.27;;;13.00;85.00;;;;;;4945255;28;22371;-88
2022/02/14 15:00:50;;;;;;;1.57;1.00;;;12.90;85.50;;;;;;4944588;28;20465;-86
2022/02/14 15:03:30;;;;;;;1.57;1.23;;;13.00;85.80;;;;;;4942065;28;20489;-88
2022/02/14 15:06:16;;;;;;;5.70;1.43;;;13.00;85.80;;;;;;4958039;28;20467;-85
2022/02/14 15:08:47;;;;;;;1.37;0.80;;;13.30;85.30;;;;;;4957542;28;20458;-85
2022/02/14 15:11:19;;;;;;;1.10;0.83;;;13.40;83.60;;;;;;4941539;28;20545;-86
2022/02/14 15:17:49;;;;;;;1.63;0.63;;;13.20;84.20;;;;;;4941472;28;20465;-85
2022/02/14 15:20:40;;;;;;;2.00;1.20;;;13.60;82.90;;;;;;4940889;28;20481;-86
2022/02/14 15:23:24;;;;;;;3.40;1.63;;;13.70;82.00;;;;;;4939752;28;20568;-86
2022/02/14 15:26:36;;;;;;;5.13;1.23;;;13.60;82.40;;;;;;4937463;28;20904;-85
2022/02/14 15:29:39;;;;;;;3.17;1.20;;;13.60;82.20;;;;;;4950590;28;20476;-85
2022/02/14 15:32:43;;;;;;;3.87;1.27;;;13.30;83.20;;;;;;4951115;28;20548;-86
2022/02/14 15:35:35;;;;;;;1.37;1.00;;;13.40;83.60;;;;;;4941864;28;21590;-86
2022/02/14 15:38:36;;;;;;;2.23;1.10;;;13.30;83.90;;;;;;4884632;29;20476;-84
2022/02/14 15:41:30;;;;;;;1.90;1.00;;;13.50;83.80;;;;;;4885918;29;20890;-86
2022/02/14 15:45:21;;;;;;;2.40;1.17;;;13.40;84.10;;;;;;4884299;29;20581;-87
2022/02/14 15:59:20;;;;;;;2.10;1.30;;;13.30;85.20;;;;;;5031759;27;20597;-88
2022/02/14 16:02:08;;;;;;;2.73;1.00;;;12.70;85.20;;;;;;5015484;28;20464;-86
2022/02/14 16:04:46;;;;;;;1.73;1.20;;;13.10;85.60;;;;;;5017471;28;20480;-85
2022/02/14 16:07:43;;;;;;;2.93;0.97;;;12.90;86.70;;;;;;4985753;28;20490;-86
2022/02/14 16:10:45;;;;;;;2.00;1.00;;;13.00;87.30;;;;;;5035802;28;20500;-88
2022/02/14 16:16:30;;;;;;;3.00;1.20;;;13.20;88.00;;;;;;5007400;28;20530;-86
2022/02/14 16:19:35;;;;;;;3.27;1.93;;;13.20;87.30;;;;;;5017370;28;20814;-85
2022/02/14 16:22:04;;;;;;;2.00;0.80;;;12.90;88.10;;;;;;5016739;28;20461;-86
2022/02/14 16:24:32;;;;;;;2.43;0.97;;;12.70;89.20;;;;;;5028075;28;20489;-85
2022/02/14 16:27:34;;;;;;;2.63;1.70;;;12.60;89.60;;;;;;5033714;28;20471;-92
2022/02/14 16:30:29;;;;;;;4.03;1.20;;;12.80;89.50;;;;;;5044921;28;20450;-90
2022/02/14 16:33:18;;;;;;;2.00;1.00;;;13.00;88.70;;;;;;5045432;28;20489;-91
2022/02/14 16:36:25;;;;;;;3.57;1.33;;;13.00;88.10;;;;;;5053949;27;20442;-91
2022/02/14 16:39:10;;;;;;;3.83;2.33;;;12.90;88.40;;;;;;5029068;28;20472;-87
2022/02/14 16:41:51;;;;;;;2.53;1.40;;;12.70;88.80;;;;;;5028927;28;20492;-88
2022/02/14 16:45:33;;;;;;;4.00;2.70;;;12.70;89.60;;;;;;5023709;28;20477;-87
2022/02/14 16:53:07;;;;;;;1.87;1.10;;;12.60;90.30;;;;;;5026207;28;20461;-88
2022/02/14 16:59:54;;;;;;;3.27;1.20;;;12.60;90.10;;;;;;5022333;28;20964;-89
2022/02/14 17:02:55;;;;;;;5.53;1.57;;;12.50;90.00;;;;;;4966340;28;21053;-87
2022/02/14 17:10:12;;;;;;;6.37;1.40;;;12.60;90.20;;;;;;4907955;28;20447;-89
2022/02/14 17:23:53;;;;;;;1.50;1.30;;;12.40;90.90;;;;;;4896806;28;20473;-87
2022/02/14 17:34:56;;;;;;;2.90;1.40;;;12.40;90.90;;;;;;5039111;22;20500;-86
2022/02/14 17:37:23;;;;;;;1.40;1.23;;;12.30;91.30;;;;;;5037717;28;20553;-86
2022/02/14 17:39:57;;;;;;;2.63;2.43;;;12.30;91.30;;;;;;5014304;28;20472;-88
2022/02/14 17:42:27;;;;;;;7.00;1.47;;;12.30;91.50;;;;;;5005128;28;20573;-88
2022/02/14 17:45:04;;;;;;;1.23;1.10;;;12.30;91.40;;;;;;5023083;27;20480;-87
2022/02/14 17:47:31;;;;;;;2.43;1.30;;;12.30;91.60;;;;;;5038010;27;21166;-85
2022/02/14 17:50:04;;;;;;;3.77;2.07;;;12.30;91.70;;;;;;5025915;28;20456;-86
2022/02/14 17:52:32;;;;;;;4.17;1.93;;;12.20;91.80;;;;;;5046538;28;20548;-85
2022/02/14 17:55:17;;;;;;;2.50;2.17;;;12.10;91.90;;;;;;5041507;28;20598;-87
2022/02/14 17:57:47;;;;;;;2.77;1.87;;;12.10;92.20;;;;;;5034782;28;20560;-86
2022/02/14 18:00:23;;;;;;;4.53;2.10;;;12.10;92.50;;;;;;5037021;28;20462;-86
2022/02/14 18:06:01;;;;;;;2.20;1.63;;;11.90;93.10;;;;;;5041378;28;20456;-86
2022/02/14 18:08:42;;;;;;;;;;;;;;;;;;;;;
2022/02/14 18:11:22;;;;;;;4.20;3.67;;;11.90;93.80;;;;;;5048514;28;20825;-85
2022/02/14 18:14:06;;;;;;;5.13;2.90;;;11.90;94.00;;;;;;5030178;28;20480;-85
2022/02/14 18:16:40;;;;;;;2.90;1.90;;;11.90;94.30;;;;;;5037815;28;20452;-86
2022/02/14 18:19:14;;;;;;;4.03;1.57;;;11.70;94.50;;;;;;5029098;28;20554;-85
2022/02/14 18:21:51;;;;;;;4.40;1.90;;;11.70;94.80;;;;;;5038670;28;20491;-90
2022/02/14 18:24:23;;;;;;;3.03;1.47;;;11.70;94.90;;;;;;5059101;28;20479;-87
2022/02/14 18:26:53;;;;;;;3.63;1.80;;;11.60;95.00;;;;;;5037972;28;20548;-88
2022/02/14 18:29:22;;;;;;;2.17;1.53;;;11.70;95.30;;;;;;5047730;28;20453;-86
2022/02/14 18:32:05;;;;;;;5.23;1.90;;;11.50;95.40;;;;;;5043128;28;20465;-86
2022/02/14 18:34:41;;;;;;;2.83;1.93;;;11.50;95.80;;;;;;5042037;28;20476;-87
2022/02/14 18:37:20;;;;;;;2.80;1.83;;;11.50;96.00;;;;;;5039133;28;20465;-85
2022/02/14 18:39:53;;;;;;;3.50;1.50;;;11.50;96.00;;;;;;5035623;28;20537;-86
2022/02/14 18:42:49;;;;;;;2.00;1.53;;;11.40;96.20;;;;;;5032488;28;20475;-86
2022/02/14 18:45:24;;;;;;;4.70;1.60;;;11.40;96.20;;;;;;5042312;28;20465;-86
2022/02/14 18:47:58;;;;;;;2.10;1.37;;;11.40;96.30;;;;;;5037625;28;20492;-87